sensor_id;sensor_type;location;lat;lon;timestamp;P1;durP1;ratioP1;P2;durP2;ratioP2
5058;SDS011;2548;52.050;11.036;2023-06-14T00:01:47;2.40;;;2.20;;
5058;SDS011;2548;52.050;11.036;2023-06-14T00:04:15;1.90;;;1.80;;
5058;SDS011;2548;52.050;11.036;2023-06-14T00:06:44;6.00;;;1.87;;
5058;SDS011;2548;52.050;11.036;2023-06-14T00:09:12;3.43;;;2.10;;
5058;SDS011;2548;52.050;11.036;2023-06-14T00:11:41;1.93;;;1.83;;
5058;SDS011;2548;52.050;11.036;2023-06-14T00:14:08;2.73;;;1.80;;
5058;SDS011;2548;52.050;11.036;2023-06-14T00:16:36;4.30;;;2.37;;
5058;SDS011;2548;52.050;11.036;2023-06-14T00:19:04;5.63;;;1.97;;
5058;SDS011;2548;52.050;11.036;2023-06-14T00:21:32;2.95;;;1.45;;
5058;SDS011;2548;52.050;11.036;2023-06-14T00:24:00;2.47;;;2.25;;
5058;SDS011;2548;52.050;11.036;2023-06-14T00:26:28;2.38;;;2.28;;
5058;SDS011;2548;52.050;11.036;2023-06-14T00:28:56;6.10;;;1.88;;
5058;SDS011;2548;52.050;11.036;2023-06-14T00:31:26;1.80;;;1.70;;
5058;SDS011;2548;52.050;11.036;2023-06-14T00:33:53;3.13;;;1.98;;
5058;SDS011;2548;52.050;11.036;2023-06-14T00:36:21;2.33;;;1.80;;
5058;SDS011;2548;52.050;11.036;2023-06-14T00:38:48;1.77;;;1.43;;
5058;SDS011;2548;52.050;11.036;2023-06-14T00:41:16;2.80;;;1.93;;
5058;SDS011;2548;52.050;11.036;2023-06-14T00:43:43;2.95;;;1.70;;
5058;SDS011;2548;52.050;11.036;2023-06-14T00:46:12;3.27;;;1.67;;
5058;SDS011;2548;52.050;11.036;2023-06-14T00:48:39;2.40;;;1.43;;
5058;SDS011;2548;52.050;11.036;2023-06-14T00:51:07;1.77;;;1.67;;
5058;SDS011;2548;52.050;11.036;2023-06-14T00:53:35;3.90;;;2.27;;
5058;SDS011;2548;52.050;11.036;2023-06-14T00:56:05;3.37;;;1.60;;
5058;SDS011;2548;52.050;11.036;2023-06-14T00:58:32;6.27;;;1.63;;
5058;SDS011;2548;52.050;11.036;2023-06-14T01:01:00;1.75;;;1.65;;
5058;SDS011;2548;52.050;11.036;2023-06-14T01:03:29;2.30;;;1.73;;
5058;SDS011;2548;52.050;11.036;2023-06-14T01:05:59;9.50;;;1.80;;
5058;SDS011;2548;52.050;11.036;2023-06-14T01:08:39;7.22;;;2.00;;
5058;SDS011;2548;52.050;11.036;2023-06-14T01:11:14;2.80;;;2.20;;
5058;SDS011;2548;52.050;11.036;2023-06-14T01:13:48;7.13;;;2.13;;
5058;SDS011;2548;52.050;11.036;2023-06-14T01:16:17;2.40;;;1.87;;
5058;SDS011;2548;52.050;11.036;2023-06-14T01:18:47;1.70;;;1.60;;
5058;SDS011;2548;52.050;11.036;2023-06-14T01:21:22;2.80;;;2.53;;
5058;SDS011;2548;52.050;11.036;2023-06-14T01:23:51;3.43;;;1.60;;
5058;SDS011;2548;52.050;11.036;2023-06-14T01:26:20;2.97;;;2.43;;
5058;SDS011;2548;52.050;11.036;2023-06-14T01:28:48;1.73;;;1.63;;
5058;SDS011;2548;52.050;11.036;2023-06-14T01:31:19;1.80;;;1.60;;
5058;SDS011;2548;52.050;11.036;2023-06-14T01:33:48;1.70;;;1.60;;
5058;SDS011;2548;52.050;11.036;2023-06-14T01:36:18;4.23;;;2.17;;
5058;SDS011;2548;52.050;11.036;2023-06-14T01:38:46;2.97;;;2.27;;
5058;SDS011;2548;52.050;11.036;2023-06-14T01:41:17;4.65;;;2.60;;
5058;SDS011;2548;52.050;11.036;2023-06-14T01:43:47;4.23;;;1.97;;
5058;SDS011;2548;52.050;11.036;2023-06-14T01:46:16;6.20;;;1.67;;
5058;SDS011;2548;52.050;11.036;2023-06-14T01:48:44;6.32;;;3.40;;
5058;SDS011;2548;52.050;11.036;2023-06-14T01:51:12;2.58;;;2.40;;
5058;SDS011;2548;52.050;11.036;2023-06-14T01:53:39;3.27;;;2.00;;
5058;SDS011;2548;52.050;11.036;2023-06-14T01:56:09;2.05;;;1.95;;
5058;SDS011;2548;52.050;11.036;2023-06-14T01:58:38;2.35;;;2.22;;
5058;SDS011;2548;52.050;11.036;2023-06-14T02:01:06;4.67;;;2.03;;
5058;SDS011;2548;52.050;11.036;2023-06-14T02:03:33;4.10;;;2.40;;
5058;SDS011;2548;52.050;11.036;2023-06-14T02:06:03;2.28;;;2.10;;
5058;SDS011;2548;52.050;11.036;2023-06-14T02:08:32;2.40;;;2.30;;
5058;SDS011;2548;52.050;11.036;2023-06-14T02:11:00;2.37;;;2.17;;
5058;SDS011;2548;52.050;11.036;2023-06-14T02:13:27;4.75;;;1.98;;
5058;SDS011;2548;52.050;11.036;2023-06-14T02:15:56;2.20;;;2.00;;
5058;SDS011;2548;52.050;11.036;2023-06-14T02:18:25;2.00;;;1.90;;
5058;SDS011;2548;52.050;11.036;2023-06-14T02:20:53;6.22;;;2.28;;
5058;SDS011;2548;52.050;11.036;2023-06-14T02:23:20;2.80;;;1.77;;
5058;SDS011;2548;52.050;11.036;2023-06-14T02:25:48;4.15;;;2.78;;
5058;SDS011;2548;52.050;11.036;2023-06-14T02:28:15;2.15;;;2.05;;
5058;SDS011;2548;52.050;11.036;2023-06-14T02:30:43;2.00;;;1.90;;
5058;SDS011;2548;52.050;11.036;2023-06-14T02:33:12;3.40;;;2.50;;
5058;SDS011;2548;52.050;11.036;2023-06-14T02:35:39;2.70;;;2.45;;
5058;SDS011;2548;52.050;11.036;2023-06-14T02:38:07;2.95;;;2.75;;
5058;SDS011;2548;52.050;11.036;2023-06-14T02:40:34;2.40;;;2.20;;
5058;SDS011;2548;52.050;11.036;2023-06-14T02:43:02;3.10;;;2.95;;
5058;SDS011;2548;52.050;11.036;2023-06-14T02:45:29;3.60;;;2.40;;
5058;SDS011;2548;52.050;11.036;2023-06-14T02:47:57;2.70;;;2.50;;
5058;SDS011;2548;52.050;11.036;2023-06-14T02:50:26;4.00;;;2.40;;
5058;SDS011;2548;52.050;11.036;2023-06-14T02:52:54;2.75;;;2.55;;
5058;SDS011;2548;52.050;11.036;2023-06-14T02:55:22;7.85;;;2.28;;
5058;SDS011;2548;52.050;11.036;2023-06-14T02:57:50;4.60;;;2.28;;
5058;SDS011;2548;52.050;11.036;2023-06-14T03:00:19;4.00;;;2.58;;
5058;SDS011;2548;52.050;11.036;2023-06-14T03:02:47;2.60;;;2.40;;
5058;SDS011;2548;52.050;11.036;2023-06-14T03:05:17;2.55;;;2.45;;
5058;SDS011;2548;52.050;11.036;2023-06-14T03:07:48;2.33;;;2.22;;
5058;SDS011;2548;52.050;11.036;2023-06-14T03:10:17;2.42;;;2.33;;
5058;SDS011;2548;52.050;11.036;2023-06-14T03:12:45;2.15;;;1.98;;
5058;SDS011;2548;52.050;11.036;2023-06-14T03:15:14;3.38;;;3.08;;
5058;SDS011;2548;52.050;11.036;2023-06-14T03:17:45;2.80;;;2.53;;
5058;SDS011;2548;52.050;11.036;2023-06-14T03:20:15;5.35;;;2.45;;
5058;SDS011;2548;52.050;11.036;2023-06-14T03:22:43;5.97;;;3.10;;
5058;SDS011;2548;52.050;11.036;2023-06-14T03:25:15;3.47;;;2.60;;
5058;SDS011;2548;52.050;11.036;2023-06-14T03:27:46;2.80;;;2.60;;
5058;SDS011;2548;52.050;11.036;2023-06-14T03:30:14;3.30;;;3.05;;
5058;SDS011;2548;52.050;11.036;2023-06-14T03:32:43;3.25;;;2.95;;
5058;SDS011;2548;52.050;11.036;2023-06-14T03:35:11;2.45;;;2.35;;
5058;SDS011;2548;52.050;11.036;2023-06-14T03:37:43;2.35;;;2.00;;
5058;SDS011;2548;52.050;11.036;2023-06-14T03:40:12;2.85;;;2.25;;
5058;SDS011;2548;52.050;11.036;2023-06-14T03:42:42;11.15;;;2.65;;
5058;SDS011;2548;52.050;11.036;2023-06-14T03:45:11;2.78;;;2.60;;
5058;SDS011;2548;52.050;11.036;2023-06-14T03:47:38;4.57;;;2.47;;
5058;SDS011;2548;52.050;11.036;2023-06-14T03:50:06;3.72;;;3.20;;
5058;SDS011;2548;52.050;11.036;2023-06-14T03:52:34;8.30;;;2.45;;
5058;SDS011;2548;52.050;11.036;2023-06-14T03:55:03;7.38;;;3.67;;
5058;SDS011;2548;52.050;11.036;2023-06-14T03:57:32;3.00;;;2.65;;
5058;SDS011;2548;52.050;11.036;2023-06-14T04:00:01;2.87;;;2.67;;
5058;SDS011;2548;52.050;11.036;2023-06-14T04:02:40;2.60;;;2.50;;
5058;SDS011;2548;52.050;11.036;2023-06-14T04:05:09;3.92;;;2.50;;
5058;SDS011;2548;52.050;11.036;2023-06-14T04:07:43;4.47;;;3.10;;
5058;SDS011;2548;52.050;11.036;2023-06-14T04:10:11;8.93;;;3.55;;
5058;SDS011;2548;52.050;11.036;2023-06-14T04:12:40;3.88;;;3.13;;
5058;SDS011;2548;52.050;11.036;2023-06-14T04:15:09;4.72;;;2.60;;
5058;SDS011;2548;52.050;11.036;2023-06-14T04:17:38;3.72;;;3.03;;
5058;SDS011;2548;52.050;11.036;2023-06-14T04:20:06;5.28;;;3.30;;
5058;SDS011;2548;52.050;11.036;2023-06-14T04:22:35;5.03;;;3.35;;
5058;SDS011;2548;52.050;11.036;2023-06-14T04:25:05;10.52;;;3.30;;
5058;SDS011;2548;52.050;11.036;2023-06-14T04:27:34;3.42;;;3.17;;
5058;SDS011;2548;52.050;11.036;2023-06-14T04:30:03;4.47;;;3.50;;
5058;SDS011;2548;52.050;11.036;2023-06-14T04:32:39;4.20;;;3.15;;
5058;SDS011;2548;52.050;11.036;2023-06-14T04:35:10;5.32;;;3.90;;
5058;SDS011;2548;52.050;11.036;2023-06-14T04:37:40;7.65;;;3.28;;
5058;SDS011;2548;52.050;11.036;2023-06-14T04:40:10;5.22;;;2.97;;
5058;SDS011;2548;52.050;11.036;2023-06-14T04:42:38;6.30;;;3.63;;
5058;SDS011;2548;52.050;11.036;2023-06-14T04:45:08;5.38;;;2.90;;
5058;SDS011;2548;52.050;11.036;2023-06-14T04:47:37;3.63;;;3.05;;
5058;SDS011;2548;52.050;11.036;2023-06-14T04:50:08;3.28;;;3.03;;
5058;SDS011;2548;52.050;11.036;2023-06-14T04:52:36;8.83;;;3.27;;
5058;SDS011;2548;52.050;11.036;2023-06-14T04:55:05;7.13;;;3.50;;
5058;SDS011;2548;52.050;11.036;2023-06-14T04:57:33;7.90;;;2.90;;
5058;SDS011;2548;52.050;11.036;2023-06-14T05:00:01;3.50;;;3.20;;
5058;SDS011;2548;52.050;11.036;2023-06-14T05:02:31;4.28;;;3.28;;
5058;SDS011;2548;52.050;11.036;2023-06-14T05:05:01;3.53;;;3.30;;
5058;SDS011;2548;52.050;11.036;2023-06-14T05:07:28;3.63;;;3.30;;
5058;SDS011;2548;52.050;11.036;2023-06-14T05:09:56;3.78;;;3.47;;
5058;SDS011;2548;52.050;11.036;2023-06-14T05:12:25;3.80;;;3.60;;
5058;SDS011;2548;52.050;11.036;2023-06-14T05:14:52;3.60;;;3.40;;
5058;SDS011;2548;52.050;11.036;2023-06-14T05:17:21;3.47;;;3.22;;
5058;SDS011;2548;52.050;11.036;2023-06-14T05:19:49;4.00;;;3.70;;
5058;SDS011;2548;52.050;11.036;2023-06-14T05:22:17;7.90;;;3.72;;
5058;SDS011;2548;52.050;11.036;2023-06-14T05:24:45;3.28;;;3.03;;
5058;SDS011;2548;52.050;11.036;2023-06-14T05:27:14;5.10;;;4.25;;
5058;SDS011;2548;52.050;11.036;2023-06-14T05:29:41;5.43;;;3.55;;
5058;SDS011;2548;52.050;11.036;2023-06-14T05:32:08;4.40;;;4.00;;
5058;SDS011;2548;52.050;11.036;2023-06-14T05:34:36;4.13;;;3.73;;
5058;SDS011;2548;52.050;11.036;2023-06-14T05:37:04;5.40;;;3.60;;
5058;SDS011;2548;52.050;11.036;2023-06-14T05:39:32;3.72;;;3.53;;
5058;SDS011;2548;52.050;11.036;2023-06-14T05:42:00;5.82;;;4.47;;
5058;SDS011;2548;52.050;11.036;2023-06-14T05:44:27;3.43;;;2.97;;
5058;SDS011;2548;52.050;11.036;2023-06-14T05:46:55;5.13;;;3.25;;
5058;SDS011;2548;52.050;11.036;2023-06-14T05:49:22;3.72;;;3.53;;
5058;SDS011;2548;52.050;11.036;2023-06-14T05:51:50;4.07;;;3.80;;
5058;SDS011;2548;52.050;11.036;2023-06-14T05:54:18;3.70;;;3.50;;
5058;SDS011;2548;52.050;11.036;2023-06-14T05:56:46;4.80;;;3.53;;
5058;SDS011;2548;52.050;11.036;2023-06-14T05:59:14;3.73;;;3.53;;
5058;SDS011;2548;52.050;11.036;2023-06-14T06:01:41;4.68;;;4.38;;
5058;SDS011;2548;52.050;11.036;2023-06-14T06:04:09;3.95;;;3.65;;
5058;SDS011;2548;52.050;11.036;2023-06-14T06:06:36;4.63;;;4.23;;
5058;SDS011;2548;52.050;11.036;2023-06-14T06:09:05;6.70;;;4.38;;
5058;SDS011;2548;52.050;11.036;2023-06-14T06:11:33;8.90;;;3.53;;
5058;SDS011;2548;52.050;11.036;2023-06-14T06:14:02;8.77;;;4.70;;
5058;SDS011;2548;52.050;11.036;2023-06-14T06:16:29;10.37;;;4.33;;
5058;SDS011;2548;52.050;11.036;2023-06-14T06:18:56;5.00;;;3.67;;
5058;SDS011;2548;52.050;11.036;2023-06-14T06:21:24;3.97;;;3.63;;
5058;SDS011;2548;52.050;11.036;2023-06-14T06:23:51;5.93;;;3.80;;
5058;SDS011;2548;52.050;11.036;2023-06-14T06:26:21;4.53;;;4.23;;
5058;SDS011;2548;52.050;11.036;2023-06-14T06:28:48;3.47;;;3.28;;
5058;SDS011;2548;52.050;11.036;2023-06-14T06:31:17;3.90;;;3.60;;
5058;SDS011;2548;52.050;11.036;2023-06-14T06:33:45;4.33;;;4.07;;
5058;SDS011;2548;52.050;11.036;2023-06-14T06:36:13;5.00;;;4.40;;
5058;SDS011;2548;52.050;11.036;2023-06-14T06:38:40;3.87;;;3.57;;
5058;SDS011;2548;52.050;11.036;2023-06-14T06:41:08;3.37;;;3.13;;
5058;SDS011;2548;52.050;11.036;2023-06-14T06:43:35;4.30;;;3.07;;
5058;SDS011;2548;52.050;11.036;2023-06-14T06:46:02;8.07;;;3.63;;
5058;SDS011;2548;52.050;11.036;2023-06-14T06:48:31;4.40;;;4.10;;
5058;SDS011;2548;52.050;11.036;2023-06-14T06:50:59;4.43;;;4.07;;
5058;SDS011;2548;52.050;11.036;2023-06-14T06:53:26;3.73;;;3.43;;
5058;SDS011;2548;52.050;11.036;2023-06-14T06:55:54;4.20;;;3.80;;
5058;SDS011;2548;52.050;11.036;2023-06-14T06:58:21;4.20;;;2.83;;
5058;SDS011;2548;52.050;11.036;2023-06-14T07:00:49;3.37;;;2.77;;
5058;SDS011;2548;52.050;11.036;2023-06-14T07:03:16;3.20;;;3.00;;
5058;SDS011;2548;52.050;11.036;2023-06-14T07:05:45;3.30;;;2.97;;
5058;SDS011;2548;52.050;11.036;2023-06-14T07:08:13;3.70;;;2.93;;
5058;SDS011;2548;52.050;11.036;2023-06-14T07:10:40;4.00;;;3.60;;
5058;SDS011;2548;52.050;11.036;2023-06-14T07:13:07;4.37;;;4.07;;
5058;SDS011;2548;52.050;11.036;2023-06-14T07:15:35;14.73;;;4.23;;
5058;SDS011;2548;52.050;11.036;2023-06-14T07:18:02;3.70;;;3.40;;
5058;SDS011;2548;52.050;11.036;2023-06-14T07:20:30;3.90;;;3.60;;
5058;SDS011;2548;52.050;11.036;2023-06-14T07:23:00;4.63;;;4.33;;
5058;SDS011;2548;52.050;11.036;2023-06-14T07:25:27;3.43;;;3.23;;
5058;SDS011;2548;52.050;11.036;2023-06-14T07:27:55;3.47;;;3.27;;
5058;SDS011;2548;52.050;11.036;2023-06-14T07:30:22;4.23;;;3.33;;
5058;SDS011;2548;52.050;11.036;2023-06-14T07:32:52;4.63;;;3.40;;
5058;SDS011;2548;52.050;11.036;2023-06-14T07:35:20;3.13;;;3.00;;
5058;SDS011;2548;52.050;11.036;2023-06-14T07:37:47;3.07;;;2.90;;
5058;SDS011;2548;52.050;11.036;2023-06-14T07:40:16;3.90;;;3.63;;
5058;SDS011;2548;52.050;11.036;2023-06-14T07:42:44;4.00;;;3.57;;
5058;SDS011;2548;52.050;11.036;2023-06-14T07:45:13;7.03;;;3.80;;
5058;SDS011;2548;52.050;11.036;2023-06-14T07:47:40;5.20;;;3.53;;
5058;SDS011;2548;52.050;11.036;2023-06-14T07:50:08;3.87;;;3.57;;
5058;SDS011;2548;52.050;11.036;2023-06-14T07:52:38;3.80;;;3.53;;
5058;SDS011;2548;52.050;11.036;2023-06-14T07:55:06;3.50;;;3.30;;
5058;SDS011;2548;52.050;11.036;2023-06-14T07:57:36;10.10;;;3.17;;
5058;SDS011;2548;52.050;11.036;2023-06-14T08:00:04;4.83;;;3.43;;
5058;SDS011;2548;52.050;11.036;2023-06-14T08:02:37;4.03;;;3.53;;
5058;SDS011;2548;52.050;11.036;2023-06-14T08:05:05;4.00;;;3.73;;
5058;SDS011;2548;52.050;11.036;2023-06-14T08:07:33;3.00;;;2.90;;
5058;SDS011;2548;52.050;11.036;2023-06-14T08:10:01;2.87;;;2.67;;
5058;SDS011;2548;52.050;11.036;2023-06-14T08:12:28;5.60;;;3.87;;
5058;SDS011;2548;52.050;11.036;2023-06-14T08:14:57;3.30;;;3.10;;
5058;SDS011;2548;52.050;11.036;2023-06-14T08:17:25;3.13;;;2.93;;
5058;SDS011;2548;52.050;11.036;2023-06-14T08:19:52;6.40;;;3.37;;
5058;SDS011;2548;52.050;11.036;2023-06-14T08:22:22;2.80;;;2.60;;
5058;SDS011;2548;52.050;11.036;2023-06-14T08:24:51;2.93;;;2.80;;
5058;SDS011;2548;52.050;11.036;2023-06-14T08:27:19;4.50;;;2.80;;
5058;SDS011;2548;52.050;11.036;2023-06-14T08:29:48;6.63;;;3.43;;
5058;SDS011;2548;52.050;11.036;2023-06-14T08:32:17;4.40;;;2.50;;
5058;SDS011;2548;52.050;11.036;2023-06-14T08:34:44;2.60;;;2.47;;
5058;SDS011;2548;52.050;11.036;2023-06-14T08:37:12;3.73;;;3.00;;
5058;SDS011;2548;52.050;11.036;2023-06-14T08:39:39;2.63;;;2.53;;
5058;SDS011;2548;52.050;11.036;2023-06-14T08:42:07;3.40;;;3.20;;
5058;SDS011;2548;52.050;11.036;2023-06-14T08:44:36;8.83;;;3.40;;
5058;SDS011;2548;52.050;11.036;2023-06-14T08:47:03;4.50;;;2.80;;
5058;SDS011;2548;52.050;11.036;2023-06-14T08:49:35;2.30;;;2.10;;
5058;SDS011;2548;52.050;11.036;2023-06-14T08:52:05;3.27;;;3.07;;
5058;SDS011;2548;52.050;11.036;2023-06-14T08:54:38;2.83;;;2.37;;
5058;SDS011;2548;52.050;11.036;2023-06-14T08:57:10;2.63;;;2.53;;
5058;SDS011;2548;52.050;11.036;2023-06-14T08:59:43;3.27;;;2.70;;
5058;SDS011;2548;52.050;11.036;2023-06-14T09:02:15;2.67;;;2.53;;
5058;SDS011;2548;52.050;11.036;2023-06-14T09:04:45;3.93;;;2.80;;
5058;SDS011;2548;52.050;11.036;2023-06-14T09:07:12;3.63;;;2.30;;
5058;SDS011;2548;52.050;11.036;2023-06-14T09:09:40;3.13;;;2.93;;
5058;SDS011;2548;52.050;11.036;2023-06-14T09:12:08;3.07;;;2.87;;
5058;SDS011;2548;52.050;11.036;2023-06-14T09:14:38;3.17;;;2.50;;
5058;SDS011;2548;52.050;11.036;2023-06-14T09:17:08;2.87;;;2.60;;
5058;SDS011;2548;52.050;11.036;2023-06-14T09:19:35;2.50;;;2.33;;
5058;SDS011;2548;52.050;11.036;2023-06-14T09:22:04;2.93;;;2.73;;
5058;SDS011;2548;52.050;11.036;2023-06-14T09:24:32;5.53;;;3.13;;
5058;SDS011;2548;52.050;11.036;2023-06-14T09:26:59;2.80;;;2.60;;
5058;SDS011;2548;52.050;11.036;2023-06-14T09:29:27;3.17;;;2.97;;
5058;SDS011;2548;52.050;11.036;2023-06-14T09:31:56;2.50;;;2.40;;
5058;SDS011;2548;52.050;11.036;2023-06-14T09:34:23;2.83;;;2.63;;
5058;SDS011;2548;52.050;11.036;2023-06-14T09:36:51;2.80;;;2.60;;
5058;SDS011;2548;52.050;11.036;2023-06-14T09:39:20;3.73;;;2.80;;
5058;SDS011;2548;52.050;11.036;2023-06-14T09:41:47;2.70;;;2.50;;
5058;SDS011;2548;52.050;11.036;2023-06-14T09:44:14;2.73;;;2.57;;
5058;SDS011;2548;52.050;11.036;2023-06-14T09:46:43;8.50;;;3.50;;
5058;SDS011;2548;52.050;11.036;2023-06-14T09:49:11;4.93;;;3.20;;
5058;SDS011;2548;52.050;11.036;2023-06-14T09:51:42;3.40;;;3.20;;
5058;SDS011;2548;52.050;11.036;2023-06-14T09:54:12;2.63;;;2.53;;
5058;SDS011;2548;52.050;11.036;2023-06-14T09:56:52;2.73;;;2.53;;
5058;SDS011;2548;52.050;11.036;2023-06-14T09:59:21;7.10;;;3.10;;
5058;SDS011;2548;52.050;11.036;2023-06-14T10:02:11;4.30;;;3.33;;
5058;SDS011;2548;52.050;11.036;2023-06-14T10:04:50;3.27;;;2.93;;
5058;SDS011;2548;52.050;11.036;2023-06-14T10:07:35;4.40;;;3.27;;
5058;SDS011;2548;52.050;11.036;2023-06-14T10:10:07;7.90;;;3.50;;
5058;SDS011;2548;52.050;11.036;2023-06-14T10:12:37;4.23;;;2.90;;
5058;SDS011;2548;52.050;11.036;2023-06-14T10:15:07;3.23;;;3.03;;
5058;SDS011;2548;52.050;11.036;2023-06-14T10:17:42;6.27;;;3.07;;
5058;SDS011;2548;52.050;11.036;2023-06-14T10:20:30;3.63;;;3.23;;
5058;SDS011;2548;52.050;11.036;2023-06-14T10:23:06;3.37;;;3.00;;
5058;SDS011;2548;52.050;11.036;2023-06-14T10:25:37;4.67;;;3.33;;
5058;SDS011;2548;52.050;11.036;2023-06-14T10:28:16;5.77;;;2.97;;
5058;SDS011;2548;52.050;11.036;2023-06-14T10:31:02;4.80;;;3.77;;
5058;SDS011;2548;52.050;11.036;2023-06-14T10:33:39;4.23;;;3.40;;
5058;SDS011;2548;52.050;11.036;2023-06-14T10:36:25;5.07;;;3.07;;
5058;SDS011;2548;52.050;11.036;2023-06-14T10:39:00;6.10;;;3.70;;
5058;SDS011;2548;52.050;11.036;2023-06-14T10:41:31;9.60;;;3.20;;
5058;SDS011;2548;52.050;11.036;2023-06-14T10:47:23;4.90;;;2.97;;
5058;SDS011;2548;52.050;11.036;2023-06-14T10:50:03;6.43;;;3.40;;
5058;SDS011;2548;52.050;11.036;2023-06-14T10:52:37;4.40;;;3.47;;
5058;SDS011;2548;52.050;11.036;2023-06-14T10:55:10;5.60;;;3.20;;
5058;SDS011;2548;52.050;11.036;2023-06-14T10:57:41;3.67;;;3.37;;
5058;SDS011;2548;52.050;11.036;2023-06-14T11:00:11;4.90;;;3.80;;
5058;SDS011;2548;52.050;11.036;2023-06-14T11:05:51;3.77;;;3.57;;
5058;SDS011;2548;52.050;11.036;2023-06-14T11:11:36;4.57;;;4.17;;
5058;SDS011;2548;52.050;11.036;2023-06-14T11:14:08;3.90;;;3.70;;
5058;SDS011;2548;52.050;11.036;2023-06-14T11:16:37;4.50;;;3.77;;
5058;SDS011;2548;52.050;11.036;2023-06-14T11:19:07;4.07;;;3.67;;
5058;SDS011;2548;52.050;11.036;2023-06-14T11:21:41;4.00;;;3.70;;
5058;SDS011;2548;52.050;11.036;2023-06-14T11:24:12;13.07;;;4.30;;
5058;SDS011;2548;52.050;11.036;2023-06-14T11:26:42;8.93;;;3.67;;
5058;SDS011;2548;52.050;11.036;2023-06-14T11:29:11;3.23;;;3.13;;
5058;SDS011;2548;52.050;11.036;2023-06-14T11:31:38;3.90;;;3.60;;
5058;SDS011;2548;52.050;11.036;2023-06-14T11:34:11;3.93;;;3.37;;
5058;SDS011;2548;52.050;11.036;2023-06-14T11:36:39;10.60;;;3.27;;
5058;SDS011;2548;52.050;11.036;2023-06-14T11:39:09;9.13;;;3.23;;
5058;SDS011;2548;52.050;11.036;2023-06-14T11:41:38;4.70;;;3.23;;
5058;SDS011;2548;52.050;11.036;2023-06-14T11:44:12;6.20;;;3.00;;
5058;SDS011;2548;52.050;11.036;2023-06-14T11:46:40;8.63;;;4.47;;
5058;SDS011;2548;52.050;11.036;2023-06-14T11:49:07;6.60;;;3.67;;
5058;SDS011;2548;52.050;11.036;2023-06-14T11:51:46;9.67;;;4.33;;
5058;SDS011;2548;52.050;11.036;2023-06-14T11:54:13;8.47;;;3.40;;
5058;SDS011;2548;52.050;11.036;2023-06-14T11:56:41;3.43;;;3.20;;
5058;SDS011;2548;52.050;11.036;2023-06-14T11:59:12;8.20;;;3.70;;
5058;SDS011;2548;52.050;11.036;2023-06-14T12:01:42;5.90;;;3.10;;
5058;SDS011;2548;52.050;11.036;2023-06-14T12:04:11;4.90;;;3.03;;
5058;SDS011;2548;52.050;11.036;2023-06-14T12:06:46;9.80;;;3.73;;
5058;SDS011;2548;52.050;11.036;2023-06-14T12:09:15;7.67;;;3.03;;
5058;SDS011;2548;52.050;11.036;2023-06-14T12:11:49;6.03;;;3.33;;
5058;SDS011;2548;52.050;11.036;2023-06-14T12:14:17;10.30;;;3.50;;
5058;SDS011;2548;52.050;11.036;2023-06-14T12:16:45;6.50;;;3.17;;
5058;SDS011;2548;52.050;11.036;2023-06-14T12:19:13;5.93;;;3.70;;
5058;SDS011;2548;52.050;11.036;2023-06-14T12:21:42;3.27;;;3.10;;
5058;SDS011;2548;52.050;11.036;2023-06-14T12:24:23;16.13;;;4.03;;
5058;SDS011;2548;52.050;11.036;2023-06-14T12:26:57;9.30;;;3.70;;
5058;SDS011;2548;52.050;11.036;2023-06-14T12:29:25;9.03;;;3.43;;
5058;SDS011;2548;52.050;11.036;2023-06-14T12:31:53;8.50;;;3.57;;
5058;SDS011;2548;52.050;11.036;2023-06-14T12:34:25;4.80;;;3.80;;
5058;SDS011;2548;52.050;11.036;2023-06-14T12:36:59;8.83;;;3.43;;
5058;SDS011;2548;52.050;11.036;2023-06-14T12:39:28;3.83;;;3.53;;
5058;SDS011;2548;52.050;11.036;2023-06-14T12:41:57;3.60;;;3.30;;
5058;SDS011;2548;52.050;11.036;2023-06-14T12:44:24;3.60;;;3.03;;
5058;SDS011;2548;52.050;11.036;2023-06-14T12:46:52;4.33;;;3.70;;
5058;SDS011;2548;52.050;11.036;2023-06-14T12:49:24;5.60;;;3.93;;
5058;SDS011;2548;52.050;11.036;2023-06-14T12:51:51;12.63;;;3.93;;
5058;SDS011;2548;52.050;11.036;2023-06-14T12:54:19;11.30;;;3.87;;
5058;SDS011;2548;52.050;11.036;2023-06-14T12:56:52;4.97;;;3.47;;
5058;SDS011;2548;52.050;11.036;2023-06-14T12:59:20;5.90;;;3.03;;
5058;SDS011;2548;52.050;11.036;2023-06-14T13:01:48;11.13;;;3.60;;
5058;SDS011;2548;52.050;11.036;2023-06-14T13:04:22;3.83;;;3.40;;
5058;SDS011;2548;52.050;11.036;2023-06-14T13:06:50;3.70;;;3.50;;
5058;SDS011;2548;52.050;11.036;2023-06-14T13:09:23;4.37;;;3.40;;
5058;SDS011;2548;52.050;11.036;2023-06-14T13:11:50;8.53;;;3.60;;
5058;SDS011;2548;52.050;11.036;2023-06-14T13:14:22;8.10;;;4.23;;
5058;SDS011;2548;52.050;11.036;2023-06-14T13:16:50;6.10;;;3.23;;
5058;SDS011;2548;52.050;11.036;2023-06-14T13:19:18;5.20;;;3.20;;
5058;SDS011;2548;52.050;11.036;2023-06-14T13:21:51;11.27;;;4.40;;
5058;SDS011;2548;52.050;11.036;2023-06-14T13:24:19;3.83;;;3.23;;
5058;SDS011;2548;52.050;11.036;2023-06-14T13:26:46;12.90;;;4.00;;
5058;SDS011;2548;52.050;11.036;2023-06-14T13:29:18;5.80;;;3.90;;
5058;SDS011;2548;52.050;11.036;2023-06-14T13:31:46;3.57;;;3.07;;
5058;SDS011;2548;52.050;11.036;2023-06-14T13:34:14;4.27;;;3.30;;
5058;SDS011;2548;52.050;11.036;2023-06-14T13:36:42;3.77;;;3.40;;
5058;SDS011;2548;52.050;11.036;2023-06-14T13:39:09;5.87;;;3.43;;
5058;SDS011;2548;52.050;11.036;2023-06-14T13:41:37;8.30;;;3.47;;
5058;SDS011;2548;52.050;11.036;2023-06-14T13:44:05;15.83;;;3.80;;
5058;SDS011;2548;52.050;11.036;2023-06-14T13:46:34;4.20;;;3.30;;
5058;SDS011;2548;52.050;11.036;2023-06-14T13:49:02;6.00;;;3.50;;
5058;SDS011;2548;52.050;11.036;2023-06-14T13:51:31;9.43;;;3.77;;
5058;SDS011;2548;52.050;11.036;2023-06-14T13:54:00;6.23;;;3.50;;
5058;SDS011;2548;52.050;11.036;2023-06-14T13:56:28;12.93;;;4.43;;
5058;SDS011;2548;52.050;11.036;2023-06-14T13:58:56;8.63;;;4.00;;
5058;SDS011;2548;52.050;11.036;2023-06-14T14:01:26;10.27;;;4.63;;
5058;SDS011;2548;52.050;11.036;2023-06-14T14:03:58;3.80;;;3.50;;
5058;SDS011;2548;52.050;11.036;2023-06-14T14:06:26;11.93;;;3.53;;
5058;SDS011;2548;52.050;11.036;2023-06-14T14:08:54;5.43;;;3.80;;
5058;SDS011;2548;52.050;11.036;2023-06-14T14:11:21;8.37;;;3.73;;
5058;SDS011;2548;52.050;11.036;2023-06-14T14:13:49;4.20;;;3.80;;
5058;SDS011;2548;52.050;11.036;2023-06-14T14:16:23;6.23;;;3.70;;
5058;SDS011;2548;52.050;11.036;2023-06-14T14:18:50;5.57;;;3.33;;
5058;SDS011;2548;52.050;11.036;2023-06-14T14:21:19;6.57;;;4.33;;
5058;SDS011;2548;52.050;11.036;2023-06-14T14:23:47;8.77;;;3.30;;
5058;SDS011;2548;52.050;11.036;2023-06-14T14:26:15;5.53;;;3.50;;
5058;SDS011;2548;52.050;11.036;2023-06-14T14:28:46;6.37;;;3.43;;
5058;SDS011;2548;52.050;11.036;2023-06-14T14:31:14;5.63;;;3.30;;
5058;SDS011;2548;52.050;11.036;2023-06-14T14:33:41;3.93;;;3.60;;
5058;SDS011;2548;52.050;11.036;2023-06-14T14:36:09;4.47;;;4.07;;
5058;SDS011;2548;52.050;11.036;2023-06-14T14:38:38;4.87;;;3.63;;
5058;SDS011;2548;52.050;11.036;2023-06-14T14:41:06;7.20;;;4.07;;
5058;SDS011;2548;52.050;11.036;2023-06-14T14:43:34;4.53;;;4.03;;
5058;SDS011;2548;52.050;11.036;2023-06-14T14:46:01;12.17;;;4.63;;
5058;SDS011;2548;52.050;11.036;2023-06-14T14:48:32;7.90;;;3.73;;
5058;SDS011;2548;52.050;11.036;2023-06-14T14:51:00;6.43;;;3.13;;
5058;SDS011;2548;52.050;11.036;2023-06-14T14:53:27;3.47;;;3.27;;
5058;SDS011;2548;52.050;11.036;2023-06-14T14:56:03;6.07;;;3.57;;
5058;SDS011;2548;52.050;11.036;2023-06-14T14:58:31;14.57;;;3.30;;
5058;SDS011;2548;52.050;11.036;2023-06-14T15:00:58;10.60;;;3.10;;
5058;SDS011;2548;52.050;11.036;2023-06-14T15:03:26;4.30;;;3.30;;
5058;SDS011;2548;52.050;11.036;2023-06-14T15:05:53;8.30;;;3.33;;
5058;SDS011;2548;52.050;11.036;2023-06-14T15:08:21;4.23;;;3.57;;
5058;SDS011;2548;52.050;11.036;2023-06-14T15:10:52;7.90;;;3.93;;
5058;SDS011;2548;52.050;11.036;2023-06-14T15:13:21;8.27;;;3.43;;
5058;SDS011;2548;52.050;11.036;2023-06-14T15:15:48;3.10;;;2.90;;
5058;SDS011;2548;52.050;11.036;2023-06-14T15:18:17;5.30;;;3.60;;
5058;SDS011;2548;52.050;11.036;2023-06-14T15:20:46;7.10;;;3.00;;
5058;SDS011;2548;52.050;11.036;2023-06-14T15:23:13;4.80;;;3.27;;